sensor_id;sensor_type;location;lat;lon;timestamp;P1;durP1;ratioP1;P2;durP2;ratioP2
21833;SDS011;11079;51.092;3.458;2023-12-29T00:02:23;13.45;;;2.50;;
21833;SDS011;11079;51.092;3.458;2023-12-29T00:04:48;17.27;;;2.92;;
21833;SDS011;11079;51.092;3.458;2023-12-29T00:07:15;13.20;;;2.63;;
21833;SDS011;11079;51.092;3.458;2023-12-29T00:09:40;13.60;;;2.67;;
21833;SDS011;11079;51.092;3.458;2023-12-29T00:12:07;10.98;;;2.65;;
21833;SDS011;11079;51.092;3.458;2023-12-29T00:14:33;14.35;;;2.50;;
21833;SDS011;11079;51.092;3.458;2023-12-29T00:17:02;10.75;;;2.72;;
21833;SDS011;11079;51.092;3.458;2023-12-29T00:19:28;13.57;;;2.70;;
21833;SDS011;11079;51.092;3.458;2023-12-29T00:21:55;13.10;;;2.80;;
21833;SDS011;11079;51.092;3.458;2023-12-29T00:24:20;18.92;;;3.35;;
21833;SDS011;11079;51.092;3.458;2023-12-29T00:26:46;9.85;;;2.53;;
21833;SDS011;11079;51.092;3.458;2023-12-29T00:29:16;9.48;;;2.65;;
21833;SDS011;11079;51.092;3.458;2023-12-29T00:31:42;10.65;;;2.50;;
21833;SDS011;11079;51.092;3.458;2023-12-29T00:34:08;8.13;;;2.58;;
21833;SDS011;11079;51.092;3.458;2023-12-29T00:36:34;11.88;;;2.67;;
21833;SDS011;11079;51.092;3.458;2023-12-29T00:39:00;8.82;;;2.35;;
21833;SDS011;11079;51.092;3.458;2023-12-29T00:41:27;11.90;;;2.55;;
21833;SDS011;11079;51.092;3.458;2023-12-29T00:43:54;14.40;;;2.95;;
21833;SDS011;11079;51.092;3.458;2023-12-29T00:46:20;8.30;;;2.20;;
21833;SDS011;11079;51.092;3.458;2023-12-29T00:48:47;12.48;;;2.80;;
21833;SDS011;11079;51.092;3.458;2023-12-29T00:51:14;9.43;;;2.10;;
21833;SDS011;11079;51.092;3.458;2023-12-29T00:53:40;9.07;;;3.22;;
21833;SDS011;11079;51.092;3.458;2023-12-29T00:56:10;13.82;;;2.50;;
21833;SDS011;11079;51.092;3.458;2023-12-29T00:58:36;11.75;;;2.50;;
21833;SDS011;11079;51.092;3.458;2023-12-29T01:01:02;6.97;;;2.17;;
21833;SDS011;11079;51.092;3.458;2023-12-29T01:03:30;13.70;;;2.70;;
21833;SDS011;11079;51.092;3.458;2023-12-29T01:05:55;10.10;;;2.50;;
21833;SDS011;11079;51.092;3.458;2023-12-29T01:08:21;12.80;;;2.83;;
21833;SDS011;11079;51.092;3.458;2023-12-29T01:10:47;12.30;;;4.15;;
21833;SDS011;11079;51.092;3.458;2023-12-29T01:13:13;9.10;;;2.38;;
21833;SDS011;11079;51.092;3.458;2023-12-29T01:15:38;11.93;;;2.42;;
21833;SDS011;11079;51.092;3.458;2023-12-29T01:18:06;11.10;;;2.70;;
21833;SDS011;11079;51.092;3.458;2023-12-29T01:20:31;8.77;;;2.28;;
21833;SDS011;11079;51.092;3.458;2023-12-29T01:22:57;12.52;;;2.40;;
21833;SDS011;11079;51.092;3.458;2023-12-29T01:25:24;13.73;;;2.53;;
21833;SDS011;11079;51.092;3.458;2023-12-29T01:27:49;10.02;;;2.60;;
21833;SDS011;11079;51.092;3.458;2023-12-29T01:30:15;9.05;;;2.28;;
21833;SDS011;11079;51.092;3.458;2023-12-29T01:32:41;11.10;;;2.88;;
21833;SDS011;11079;51.092;3.458;2023-12-29T01:35:10;10.65;;;2.63;;
21833;SDS011;11079;51.092;3.458;2023-12-29T01:37:35;10.40;;;2.42;;
21833;SDS011;11079;51.092;3.458;2023-12-29T01:40:03;14.30;;;3.17;;
21833;SDS011;11079;51.092;3.458;2023-12-29T01:42:29;9.05;;;2.53;;
21833;SDS011;11079;51.092;3.458;2023-12-29T01:44:54;9.98;;;2.25;;
21833;SDS011;11079;51.092;3.458;2023-12-29T01:47:20;14.02;;;2.53;;
21833;SDS011;11079;51.092;3.458;2023-12-29T01:49:47;9.30;;;2.67;;
21833;SDS011;11079;51.092;3.458;2023-12-29T01:52:14;8.45;;;2.40;;
21833;SDS011;11079;51.092;3.458;2023-12-29T01:54:42;12.27;;;3.38;;
21833;SDS011;11079;51.092;3.458;2023-12-29T01:57:10;15.50;;;2.88;;
21833;SDS011;11079;51.092;3.458;2023-12-29T01:59:37;13.23;;;2.63;;
21833;SDS011;11079;51.092;3.458;2023-12-29T02:02:05;19.88;;;3.65;;
21833;SDS011;11079;51.092;3.458;2023-12-29T02:04:31;10.57;;;2.22;;
21833;SDS011;11079;51.092;3.458;2023-12-29T02:06:58;12.57;;;2.40;;
21833;SDS011;11079;51.092;3.458;2023-12-29T02:09:24;10.60;;;2.63;;
21833;SDS011;11079;51.092;3.458;2023-12-29T02:11:49;10.55;;;3.13;;
21833;SDS011;11079;51.092;3.458;2023-12-29T02:14:16;8.88;;;2.97;;
21833;SDS011;11079;51.092;3.458;2023-12-29T02:16:56;11.60;;;2.38;;
21833;SDS011;11079;51.092;3.458;2023-12-29T02:19:46;17.95;;;3.40;;
21833;SDS011;11079;51.092;3.458;2023-12-29T02:22:28;12.80;;;3.60;;
21833;SDS011;11079;51.092;3.458;2023-12-29T02:25:13;8.80;;;2.28;;
21833;SDS011;11079;51.092;3.458;2023-12-29T02:27:43;11.70;;;1.85;;
21833;SDS011;11079;51.092;3.458;2023-12-29T02:33:27;15.80;;;3.13;;
21833;SDS011;11079;51.092;3.458;2023-12-29T02:36:07;11.05;;;2.20;;
21833;SDS011;11079;51.092;3.458;2023-12-29T02:38:35;8.43;;;2.03;;
21833;SDS011;11079;51.092;3.458;2023-12-29T02:41:01;12.40;;;2.33;;
21833;SDS011;11079;51.092;3.458;2023-12-29T02:43:35;10.73;;;2.20;;
21833;SDS011;11079;51.092;3.458;2023-12-29T02:46:00;12.32;;;2.72;;
21833;SDS011;11079;51.092;3.458;2023-12-29T02:48:28;12.52;;;2.28;;
21833;SDS011;11079;51.092;3.458;2023-12-29T02:50:54;9.68;;;2.03;;
21833;SDS011;11079;51.092;3.458;2023-12-29T02:53:19;8.80;;;2.38;;
21833;SDS011;11079;51.092;3.458;2023-12-29T02:55:47;5.57;;;2.17;;
21833;SDS011;11079;51.092;3.458;2023-12-29T02:58:13;11.57;;;2.53;;
21833;SDS011;11079;51.092;3.458;2023-12-29T03:00:45;9.63;;;2.33;;
21833;SDS011;11079;51.092;3.458;2023-12-29T03:03:11;13.25;;;2.65;;
21833;SDS011;11079;51.092;3.458;2023-12-29T03:05:40;10.38;;;3.25;;
21833;SDS011;11079;51.092;3.458;2023-12-29T03:08:06;16.45;;;3.40;;
21833;SDS011;11079;51.092;3.458;2023-12-29T03:10:48;13.70;;;2.70;;
21833;SDS011;11079;51.092;3.458;2023-12-29T03:13:20;15.07;;;2.80;;
21833;SDS011;11079;51.092;3.458;2023-12-29T03:15:46;15.55;;;2.90;;
21833;SDS011;11079;51.092;3.458;2023-12-29T03:18:11;13.05;;;2.53;;
21833;SDS011;11079;51.092;3.458;2023-12-29T03:20:37;13.65;;;2.92;;
21833;SDS011;11079;51.092;3.458;2023-12-29T03:23:03;18.73;;;2.83;;
21833;SDS011;11079;51.092;3.458;2023-12-29T03:25:28;13.07;;;2.30;;
21833;SDS011;11079;51.092;3.458;2023-12-29T03:27:54;11.75;;;2.50;;
21833;SDS011;11079;51.092;3.458;2023-12-29T03:30:20;13.82;;;3.13;;
21833;SDS011;11079;51.092;3.458;2023-12-29T03:32:45;11.75;;;2.15;;
21833;SDS011;11079;51.092;3.458;2023-12-29T03:35:11;13.25;;;2.55;;
21833;SDS011;11079;51.092;3.458;2023-12-29T03:37:42;29.30;;;3.90;;
21833;SDS011;11079;51.092;3.458;2023-12-29T03:40:08;9.65;;;2.53;;
21833;SDS011;11079;51.092;3.458;2023-12-29T03:42:35;15.43;;;2.72;;
21833;SDS011;11079;51.092;3.458;2023-12-29T03:45:06;14.02;;;2.70;;
21833;SDS011;11079;51.092;3.458;2023-12-29T03:47:32;18.50;;;3.50;;
21833;SDS011;11079;51.092;3.458;2023-12-29T03:49:58;19.67;;;3.28;;
21833;SDS011;11079;51.092;3.458;2023-12-29T03:52:23;11.90;;;2.40;;
21833;SDS011;11079;51.092;3.458;2023-12-29T03:54:49;9.52;;;2.55;;
21833;SDS011;11079;51.092;3.458;2023-12-29T03:57:15;9.95;;;2.33;;
21833;SDS011;11079;51.092;3.458;2023-12-29T03:59:40;15.93;;;3.08;;
21833;SDS011;11079;51.092;3.458;2023-12-29T04:02:06;11.52;;;2.20;;
21833;SDS011;11079;51.092;3.458;2023-12-29T04:04:32;10.52;;;2.28;;
21833;SDS011;11079;51.092;3.458;2023-12-29T04:07:00;14.43;;;2.50;;
21833;SDS011;11079;51.092;3.458;2023-12-29T04:09:28;9.73;;;2.80;;
21833;SDS011;11079;51.092;3.458;2023-12-29T04:11:53;10.70;;;2.78;;
21833;SDS011;11079;51.092;3.458;2023-12-29T04:14:19;13.57;;;2.20;;
21833;SDS011;11079;51.092;3.458;2023-12-29T04:16:45;12.73;;;2.58;;
21833;SDS011;11079;51.092;3.458;2023-12-29T04:19:10;11.50;;;3.05;;
21833;SDS011;11079;51.092;3.458;2023-12-29T04:21:36;10.00;;;2.88;;
21833;SDS011;11079;51.092;3.458;2023-12-29T04:24:02;10.80;;;2.38;;
21833;SDS011;11079;51.092;3.458;2023-12-29T04:26:29;10.02;;;2.58;;
21833;SDS011;11079;51.092;3.458;2023-12-29T04:28:54;15.75;;;2.75;;
21833;SDS011;11079;51.092;3.458;2023-12-29T04:31:20;10.13;;;3.30;;
21833;SDS011;11079;51.092;3.458;2023-12-29T04:33:46;14.30;;;2.33;;
21833;SDS011;11079;51.092;3.458;2023-12-29T04:36:12;7.93;;;2.28;;
21833;SDS011;11079;51.092;3.458;2023-12-29T04:38:38;7.45;;;2.25;;
21833;SDS011;11079;51.092;3.458;2023-12-29T04:41:04;13.48;;;2.78;;
21833;SDS011;11079;51.092;3.458;2023-12-29T04:43:30;13.23;;;3.60;;
21833;SDS011;11079;51.092;3.458;2023-12-29T04:45:56;7.25;;;1.77;;
21833;SDS011;11079;51.092;3.458;2023-12-29T04:48:22;7.60;;;2.38;;
21833;SDS011;11079;51.092;3.458;2023-12-29T04:50:48;12.30;;;2.30;;
21833;SDS011;11079;51.092;3.458;2023-12-29T04:53:13;13.05;;;2.70;;
21833;SDS011;11079;51.092;3.458;2023-12-29T04:55:39;9.63;;;2.35;;
21833;SDS011;11079;51.092;3.458;2023-12-29T05:00:36;6.65;;;2.05;;
21833;SDS011;11079;51.092;3.458;2023-12-29T05:03:02;9.55;;;2.08;;
21833;SDS011;11079;51.092;3.458;2023-12-29T05:05:29;8.02;;;2.33;;
21833;SDS011;11079;51.092;3.458;2023-12-29T05:07:54;7.53;;;2.42;;
21833;SDS011;11079;51.092;3.458;2023-12-29T05:14:07;5.65;;;1.70;;
21833;SDS011;11079;51.092;3.458;2023-12-29T05:16:42;9.05;;;2.00;;
21833;SDS011;11079;51.092;3.458;2023-12-29T05:19:37;14.20;;;2.88;;
21833;SDS011;11079;51.092;3.458;2023-12-29T05:22:16;4.97;;;2.75;;
21833;SDS011;11079;51.092;3.458;2023-12-29T05:24:43;11.77;;;2.60;;
21833;SDS011;11079;51.092;3.458;2023-12-29T05:27:10;13.93;;;2.40;;
21833;SDS011;11079;51.092;3.458;2023-12-29T05:29:42;10.00;;;2.28;;
21833;SDS011;11079;51.092;3.458;2023-12-29T05:32:10;6.97;;;2.20;;
21833;SDS011;11079;51.092;3.458;2023-12-29T05:34:42;4.53;;;2.00;;
21833;SDS011;11079;51.092;3.458;2023-12-29T05:37:08;8.50;;;2.70;;
21833;SDS011;11079;51.092;3.458;2023-12-29T05:39:35;10.63;;;2.50;;
21833;SDS011;11079;51.092;3.458;2023-12-29T05:42:05;11.05;;;2.42;;
21833;SDS011;11079;51.092;3.458;2023-12-29T05:44:31;8.00;;;1.80;;
21833;SDS011;11079;51.092;3.458;2023-12-29T05:46:56;5.57;;;2.50;;
21833;SDS011;11079;51.092;3.458;2023-12-29T05:49:26;7.15;;;2.10;;
21833;SDS011;11079;51.092;3.458;2023-12-29T05:51:52;8.00;;;3.05;;
21833;SDS011;11079;51.092;3.458;2023-12-29T05:54:18;5.30;;;1.90;;
21833;SDS011;11079;51.092;3.458;2023-12-29T05:56:43;10.85;;;2.53;;
21833;SDS011;11079;51.092;3.458;2023-12-29T05:59:09;14.40;;;2.20;;
21833;SDS011;11079;51.092;3.458;2023-12-29T06:01:35;8.40;;;2.05;;
21833;SDS011;11079;51.092;3.458;2023-12-29T06:04:01;6.88;;;2.10;;
21833;SDS011;11079;51.092;3.458;2023-12-29T06:06:27;5.28;;;1.70;;
21833;SDS011;11079;51.092;3.458;2023-12-29T06:08:54;7.20;;;2.42;;
21833;SDS011;11079;51.092;3.458;2023-12-29T06:11:20;7.38;;;2.33;;
21833;SDS011;11079;51.092;3.458;2023-12-29T06:13:46;8.20;;;2.58;;
21833;SDS011;11079;51.092;3.458;2023-12-29T06:16:18;8.63;;;2.35;;
21833;SDS011;11079;51.092;3.458;2023-12-29T06:18:45;7.35;;;2.17;;
21833;SDS011;11079;51.092;3.458;2023-12-29T06:21:11;4.00;;;1.52;;
21833;SDS011;11079;51.092;3.458;2023-12-29T06:23:36;6.68;;;1.70;;
21833;SDS011;11079;51.092;3.458;2023-12-29T06:26:02;5.15;;;2.13;;
21833;SDS011;11079;51.092;3.458;2023-12-29T06:28:28;16.00;;;3.40;;
21833;SDS011;11079;51.092;3.458;2023-12-29T06:30:54;5.32;;;1.98;;
21833;SDS011;11079;51.092;3.458;2023-12-29T06:33:19;4.72;;;1.95;;
21833;SDS011;11079;51.092;3.458;2023-12-29T06:35:48;9.48;;;1.85;;
21833;SDS011;11079;51.092;3.458;2023-12-29T06:38:13;5.78;;;1.95;;
21833;SDS011;11079;51.092;3.458;2023-12-29T06:40:39;3.90;;;1.63;;
21833;SDS011;11079;51.092;3.458;2023-12-29T06:43:05;5.57;;;2.10;;
21833;SDS011;11079;51.092;3.458;2023-12-29T06:45:31;6.38;;;1.65;;
21833;SDS011;11079;51.092;3.458;2023-12-29T06:47:57;5.85;;;2.17;;
21833;SDS011;11079;51.092;3.458;2023-12-29T06:50:22;7.40;;;2.20;;
21833;SDS011;11079;51.092;3.458;2023-12-29T06:52:48;7.10;;;2.33;;
21833;SDS011;11079;51.092;3.458;2023-12-29T06:55:14;6.88;;;1.90;;
21833;SDS011;11079;51.092;3.458;2023-12-29T06:57:39;6.30;;;1.98;;
21833;SDS011;11079;51.092;3.458;2023-12-29T07:00:05;6.50;;;2.08;;
21833;SDS011;11079;51.092;3.458;2023-12-29T07:02:31;5.90;;;2.10;;
21833;SDS011;11079;51.092;3.458;2023-12-29T07:04:57;6.60;;;1.85;;
21833;SDS011;11079;51.092;3.458;2023-12-29T07:07:23;3.63;;;1.45;;
21833;SDS011;11079;51.092;3.458;2023-12-29T07:09:49;5.20;;;1.60;;
21833;SDS011;11079;51.092;3.458;2023-12-29T07:12:15;2.47;;;1.20;;
21833;SDS011;11079;51.092;3.458;2023-12-29T07:14:41;3.47;;;1.20;;
21833;SDS011;11079;51.092;3.458;2023-12-29T07:17:07;6.40;;;1.50;;
21833;SDS011;11079;51.092;3.458;2023-12-29T07:19:33;4.45;;;1.42;;
21833;SDS011;11079;51.092;3.458;2023-12-29T07:22:02;4.32;;;1.08;;
21833;SDS011;11079;51.092;3.458;2023-12-29T07:24:30;2.55;;;1.33;;
21833;SDS011;11079;51.092;3.458;2023-12-29T07:26:56;5.57;;;1.27;;
21833;SDS011;11079;51.092;3.458;2023-12-29T07:29:21;4.38;;;1.25;;
21833;SDS011;11079;51.092;3.458;2023-12-29T07:31:47;3.40;;;1.30;;
21833;SDS011;11079;51.092;3.458;2023-12-29T07:34:14;3.30;;;1.10;;
21833;SDS011;11079;51.092;3.458;2023-12-29T07:36:39;5.22;;;1.40;;
21833;SDS011;11079;51.092;3.458;2023-12-29T07:39:05;3.47;;;0.80;;
21833;SDS011;11079;51.092;3.458;2023-12-29T07:41:32;2.42;;;0.93;;
21833;SDS011;11079;51.092;3.458;2023-12-29T07:43:58;1.55;;;0.80;;
21833;SDS011;11079;51.092;3.458;2023-12-29T07:46:25;2.60;;;1.00;;
21833;SDS011;11079;51.092;3.458;2023-12-29T07:48:55;3.03;;;1.00;;
21833;SDS011;11079;51.092;3.458;2023-12-29T07:51:21;3.60;;;1.15;;
21833;SDS011;11079;51.092;3.458;2023-12-29T07:53:49;3.03;;;0.68;;
21833;SDS011;11079;51.092;3.458;2023-12-29T07:56:15;1.83;;;0.90;;
21833;SDS011;11079;51.092;3.458;2023-12-29T07:58:40;4.75;;;0.98;;
21833;SDS011;11079;51.092;3.458;2023-12-29T08:01:06;1.77;;;0.60;;
21833;SDS011;11079;51.092;3.458;2023-12-29T08:03:32;1.92;;;0.90;;
21833;SDS011;11079;51.092;3.458;2023-12-29T08:05:58;1.48;;;0.80;;
21833;SDS011;11079;51.092;3.458;2023-12-29T08:08:23;2.10;;;1.00;;
21833;SDS011;11079;51.092;3.458;2023-12-29T08:10:49;2.65;;;0.80;;
21833;SDS011;11079;51.092;3.458;2023-12-29T08:13:15;2.90;;;1.40;;
21833;SDS011;11079;51.092;3.458;2023-12-29T08:15:41;1.25;;;0.90;;
21833;SDS011;11079;51.092;3.458;2023-12-29T08:18:08;1.25;;;0.95;;
21833;SDS011;11079;51.092;3.458;2023-12-29T08:20:34;3.80;;;1.10;;
21833;SDS011;11079;51.092;3.458;2023-12-29T08:23:00;1.30;;;0.70;;
21833;SDS011;11079;51.092;3.458;2023-12-29T08:25:28;1.75;;;1.13;;
21833;SDS011;11079;51.092;3.458;2023-12-29T08:27:54;4.55;;;1.35;;
21833;SDS011;11079;51.092;3.458;2023-12-29T08:30:21;3.22;;;1.13;;
21833;SDS011;11079;51.092;3.458;2023-12-29T08:32:47;3.97;;;1.02;;
21833;SDS011;11079;51.092;3.458;2023-12-29T08:35:12;3.22;;;1.42;;
21833;SDS011;11079;51.092;3.458;2023-12-29T08:37:38;3.72;;;1.08;;
21833;SDS011;11079;51.092;3.458;2023-12-29T08:40:05;4.05;;;1.23;;
21833;SDS011;11079;51.092;3.458;2023-12-29T08:42:31;2.28;;;1.15;;
21833;SDS011;11079;51.092;3.458;2023-12-29T08:44:58;2.20;;;0.95;;
21833;SDS011;11079;51.092;3.458;2023-12-29T08:47:24;8.10;;;2.30;;
21833;SDS011;11079;51.092;3.458;2023-12-29T08:49:49;3.28;;;1.45;;
21833;SDS011;11079;51.092;3.458;2023-12-29T08:52:16;3.78;;;1.90;;
21833;SDS011;11079;51.092;3.458;2023-12-29T08:54:42;3.30;;;1.35;;
21833;SDS011;11079;51.092;3.458;2023-12-29T08:57:07;6.60;;;1.40;;
21833;SDS011;11079;51.092;3.458;2023-12-29T08:59:45;5.57;;;1.15;;
21833;SDS011;11079;51.092;3.458;2023-12-29T09:02:11;4.68;;;1.50;;
21833;SDS011;11079;51.092;3.458;2023-12-29T09:04:37;4.10;;;1.20;;
21833;SDS011;11079;51.092;3.458;2023-12-29T09:07:02;6.22;;;1.13;;
21833;SDS011;11079;51.092;3.458;2023-12-29T09:09:30;5.82;;;1.05;;
21833;SDS011;11079;51.092;3.458;2023-12-29T09:11:56;5.50;;;1.42;;
21833;SDS011;11079;51.092;3.458;2023-12-29T09:14:22;8.10;;;1.83;;
21833;SDS011;11079;51.092;3.458;2023-12-29T09:16:47;9.60;;;1.83;;
21833;SDS011;11079;51.092;3.458;2023-12-29T09:19:13;7.55;;;1.85;;
21833;SDS011;11079;51.092;3.458;2023-12-29T09:21:42;6.15;;;2.35;;
21833;SDS011;11079;51.092;3.458;2023-12-29T09:24:08;7.30;;;1.52;;
21833;SDS011;11079;51.092;3.458;2023-12-29T09:26:33;8.35;;;1.48;;
21833;SDS011;11079;51.092;3.458;2023-12-29T09:28:59;3.15;;;1.30;;
21833;SDS011;11079;51.092;3.458;2023-12-29T09:31:26;13.07;;;1.92;;
21833;SDS011;11079;51.092;3.458;2023-12-29T09:33:57;4.65;;;1.42;;
21833;SDS011;11079;51.092;3.458;2023-12-29T09:36:23;8.13;;;1.50;;
21833;SDS011;11079;51.092;3.458;2023-12-29T09:38:49;2.90;;;0.90;;
21833;SDS011;11079;51.092;3.458;2023-12-29T09:41:18;3.30;;;0.80;;
21833;SDS011;11079;51.092;3.458;2023-12-29T09:43:53;4.30;;;1.35;;
21833;SDS011;11079;51.092;3.458;2023-12-29T09:46:29;3.72;;;1.15;;
21833;SDS011;11079;51.092;3.458;2023-12-29T09:48:57;6.93;;;0.93;;
21833;SDS011;11079;51.092;3.458;2023-12-29T09:51:27;2.40;;;1.35;;
21833;SDS011;11079;51.092;3.458;2023-12-29T09:53:53;3.00;;;1.00;;
21833;SDS011;11079;51.092;3.458;2023-12-29T09:56:20;3.33;;;1.02;;
21833;SDS011;11079;51.092;3.458;2023-12-29T09:58:48;4.93;;;1.45;;
21833;SDS011;11079;51.092;3.458;2023-12-29T10:01:21;6.60;;;1.42;;
21833;SDS011;11079;51.092;3.458;2023-12-29T10:03:47;7.10;;;1.13;;
21833;SDS011;11079;51.092;3.458;2023-12-29T10:06:16;3.60;;;1.05;;
21833;SDS011;11079;51.092;3.458;2023-12-29T10:08:49;3.92;;;1.48;;
21833;SDS011;11079;51.092;3.458;2023-12-29T10:11:21;8.00;;;1.60;;
21833;SDS011;11079;51.092;3.458;2023-12-29T10:13:49;8.48;;;1.65;;
21833;SDS011;11079;51.092;3.458;2023-12-29T10:16:32;10.02;;;2.15;;
21833;SDS011;11079;51.092;3.458;2023-12-29T10:19:10;8.20;;;2.13;;
21833;SDS011;11079;51.092;3.458;2023-12-29T10:24:33;8.40;;;1.73;;
21833;SDS011;11079;51.092;3.458;2023-12-29T10:27:00;9.68;;;2.58;;
21833;SDS011;11079;51.092;3.458;2023-12-29T10:29:26;10.73;;;2.22;;
21833;SDS011;11079;51.092;3.458;2023-12-29T10:31:52;12.30;;;2.38;;
21833;SDS011;11079;51.092;3.458;2023-12-29T10:34:27;13.93;;;2.78;;
21833;SDS011;11079;51.092;3.458;2023-12-29T10:37:08;10.88;;;2.40;;
21833;SDS011;11079;51.092;3.458;2023-12-29T10:39:39;10.55;;;2.72;;
21833;SDS011;11079;51.092;3.458;2023-12-29T10:42:21;8.77;;;2.08;;
21833;SDS011;11079;51.092;3.458;2023-12-29T10:44:53;8.02;;;2.58;;
21833;SDS011;11079;51.092;3.458;2023-12-29T10:47:31;13.68;;;2.85;;
21833;SDS011;11079;51.092;3.458;2023-12-29T10:50:01;15.00;;;3.10;;
21833;SDS011;11079;51.092;3.458;2023-12-29T10:52:31;10.95;;;2.58;;
21833;SDS011;11079;51.092;3.458;2023-12-29T10:55:05;11.82;;;2.97;;
21833;SDS011;11079;51.092;3.458;2023-12-29T10:57:35;13.70;;;3.00;;
21833;SDS011;11079;51.092;3.458;2023-12-29T11:00:01;13.18;;;2.80;;
21833;SDS011;11079;51.092;3.458;2023-12-29T11:02:28;12.55;;;2.53;;
21833;SDS011;11079;51.092;3.458;2023-12-29T11:05:01;10.50;;;3.10;;
21833;SDS011;11079;51.092;3.458;2023-12-29T11:07:32;15.23;;;3.08;;
21833;SDS011;11079;51.092;3.458;2023-12-29T11:10:03;10.30;;;2.70;;
21833;SDS011;11079;51.092;3.458;2023-12-29T11:12:31;13.18;;;2.60;;
21833;SDS011;11079;51.092;3.458;2023-12-29T11:14:59;9.60;;;2.45;;
21833;SDS011;11079;51.092;3.458;2023-12-29T11:17:29;11.80;;;2.75;;
21833;SDS011;11079;51.092;3.458;2023-12-29T11:19:59;8.18;;;2.20;;
21833;SDS011;11079;51.092;3.458;2023-12-29T11:22:29;15.55;;;2.72;;
21833;SDS011;11079;51.092;3.458;2023-12-29T11:24:59;13.82;;;3.38;;
21833;SDS011;11079;51.092;3.458;2023-12-29T11:27:26;9.43;;;3.30;;
21833;SDS011;11079;51.092;3.458;2023-12-29T11:29:54;9.65;;;2.15;;
21833;SDS011;11079;51.092;3.458;2023-12-29T11:32:32;8.00;;;2.63;;
21833;SDS011;11079;51.092;3.458;2023-12-29T11:35:23;12.55;;;2.88;;
21833;SDS011;11079;51.092;3.458;2023-12-29T11:40:48;6.60;;;1.95;;
21833;SDS011;11079;51.092;3.458;2023-12-29T11:43:24;10.77;;;3.42;;
21833;SDS011;11079;51.092;3.458;2023-12-29T11:45:51;7.65;;;2.00;;
21833;SDS011;11079;51.092;3.458;2023-12-29T11:54:08;7.78;;;1.98;;
21833;SDS011;11079;51.092;3.458;2023-12-29T11:56:35;5.05;;;1.48;;
21833;SDS011;11079;51.092;3.458;2023-12-29T11:59:13;5.15;;;1.50;;
21833;SDS011;11079;51.092;3.458;2023-12-29T12:01:46;3.38;;;1.25;;
21833;SDS011;11079;51.092;3.458;2023-12-29T12:07:03;4.72;;;1.30;;
21833;SDS011;11079;51.092;3.458;2023-12-29T12:09:30;5.43;;;1.10;;
21833;SDS011;11079;51.092;3.458;2023-12-29T12:11:56;4.50;;;1.48;;
21833;SDS011;11079;51.092;3.458;2023-12-29T12:17:29;3.17;;;1.20;;
21833;SDS011;11079;51.092;3.458;2023-12-29T12:20:07;5.15;;;1.30;;
21833;SDS011;11079;51.092;3.458;2023-12-29T12:22:36;4.97;;;0.98;;
21833;SDS011;11079;51.092;3.458;2023-12-29T12:25:02;4.50;;;1.20;;
21833;SDS011;11079;51.092;3.458;2023-12-29T12:27:29;5.20;;;1.27;;
21833;SDS011;11079;51.092;3.458;2023-12-29T12:29:57;4.32;;;1.45;;
21833;SDS011;11079;51.092;3.458;2023-12-29T12:32:28;4.07;;;0.93;;
21833;SDS011;11079;51.092;3.458;2023-12-29T12:34:56;4.07;;;1.10;;
21833;SDS011;11079;51.092;3.458;2023-12-29T12:37:28;3.88;;;0.80;;
21833;SDS011;11079;51.092;3.458;2023-12-29T12:39:54;1.77;;;0.63;;
21833;SDS011;11079;51.092;3.458;2023-12-29T12:42:20;2.50;;;1.08;;
21833;SDS011;11079;51.092;3.458;2023-12-29T12:44:48;4.13;;;0.93;;
21833;SDS011;11079;51.092;3.458;2023-12-29T12:47:36;4.05;;;0.75;;
21833;SDS011;11079;51.092;3.458;2023-12-29T12:50:11;4.35;;;0.90;;
21833;SDS011;11079;51.092;3.458;2023-12-29T12:52:38;1.45;;;0.60;;
21833;SDS011;11079;51.092;3.458;2023-12-29T12:55:05;5.57;;;1.00;;
21833;SDS011;11079;51.092;3.458;2023-12-29T12:57:32;2.80;;;0.70;;
21833;SDS011;11079;51.092;3.458;2023-12-29T12:59:59;4.35;;;1.00;;
21833;SDS011;11079;51.092;3.458;2023-12-29T13:02:25;2.72;;;0.88;;
21833;SDS011;11079;51.092;3.458;2023-12-29T13:04:52;1.65;;;0.90;;
21833;SDS011;11079;51.092;3.458;2023-12-29T13:07:18;4.95;;;1.08;;
21833;SDS011;11079;51.092;3.458;2023-12-29T13:09:46;1.58;;;0.73;;
21833;SDS011;11079;51.092;3.458;2023-12-29T13:12:15;4.45;;;1.02;;
21833;SDS011;11079;51.092;3.458;2023-12-29T13:14:42;2.42;;;1.08;;
21833;SDS011;11079;51.092;3.458;2023-12-29T13:17:08;3.00;;;0.80;;
21833;SDS011;11079;51.092;3.458;2023-12-29T13:19:36;3.05;;;1.00;;
21833;SDS011;11079;51.092;3.458;2023-12-29T13:22:05;3.40;;;1.10;;
21833;SDS011;11079;51.092;3.458;2023-12-29T13:24:33;4.10;;;1.20;;
21833;SDS011;11079;51.092;3.458;2023-12-29T13:27:04;5.13;;;1.23;;
21833;SDS011;11079;51.092;3.458;2023-12-29T13:29:32;5.95;;;1.20;;
21833;SDS011;11079;51.092;3.458;2023-12-29T13:32:19;4.60;;;1.52;;
21833;SDS011;11079;51.092;3.458;2023-12-29T13:40:37;4.13;;;1.67;;
21833;SDS011;11079;51.092;3.458;2023-12-29T13:43:09;6.05;;;2.38;;
21833;SDS011;11079;51.092;3.458;2023-12-29T13:45:36;5.30;;;2.95;;
21833;SDS011;11079;51.092;3.458;2023-12-29T13:48:05;5.57;;;2.90;;
21833;SDS011;11079;51.092;3.458;2023-12-29T13:50:33;11.07;;;5.20;;
21833;SDS011;11079;51.092;3.458;2023-12-29T13:52:59;7.65;;;3.45;;
21833;SDS011;11079;51.092;3.458;2023-12-29T13:55:25;5.18;;;2.10;;
21833;SDS011;11079;51.092;3.458;2023-12-29T13:57:52;5.97;;;1.50;;
21833;SDS011;11079;51.092;3.458;2023-12-29T14:00:22;5.95;;;1.25;;
21833;SDS011;11079;51.092;3.458;2023-12-29T14:05:36;4.78;;;1.77;;
21833;SDS011;11079;51.092;3.458;2023-12-29T14:08:24;4.78;;;1.27;;
21833;SDS011;11079;51.092;3.458;2023-12-29T14:10:50;2.55;;;0.88;;
21833;SDS011;11079;51.092;3.458;2023-12-29T14:13:16;4.32;;;1.45;;
21833;SDS011;11079;51.092;3.458;2023-12-29T14:15:43;6.40;;;2.03;;
21833;SDS011;11079;51.092;3.458;2023-12-29T14:21:00;6.13;;;1.75;;
21833;SDS011;11079;51.092;3.458;2023-12-29T14:23:25;3.45;;;1.50;;
21833;SDS011;11079;51.092;3.458;2023-12-29T14:25:51;6.07;;;1.15;;
21833;SDS011;11079;51.092;3.458;2023-12-29T14:28:17;2.90;;;1.33;;
21833;SDS011;11079;51.092;3.458;2023-12-29T14:30:44;3.75;;;1.20;;
21833;SDS011;11079;51.092;3.458;2023-12-29T14:33:10;3.72;;;1.23;;
21833;SDS011;11079;51.092;3.458;2023-12-29T14:35:36;8.93;;;3.35;;
21833;SDS011;11079;51.092;3.458;2023-12-29T14:38:02;10.80;;;2.15;;
21833;SDS011;11079;51.092;3.458;2023-12-29T14:40:28;10.27;;;2.05;;
21833;SDS011;11079;51.092;3.458;2023-12-29T14:42:54;15.35;;;2.53;;
21833;SDS011;11079;51.092;3.458;2023-12-29T14:45:22;9.35;;;2.50;;
21833;SDS011;11079;51.092;3.458;2023-12-29T14:47:47;11.85;;;3.33;;
21833;SDS011;11079;51.092;3.458;2023-12-29T14:50:14;8.43;;;2.50;;
21833;SDS011;11079;51.092;3.458;2023-12-29T14:52:40;11.50;;;3.30;;
21833;SDS011;11079;51.092;3.458;2023-12-29T14:55:06;17.15;;;5.18;;
21833;SDS011;11079;51.092;3.458;2023-12-29T14:57:32;12.15;;;2.80;;
21833;SDS011;11079;51.092;3.458;2023-12-29T14:59:57;14.50;;;2.47;;
21833;SDS011;11079;51.092;3.458;2023-12-29T15:02:23;13.48;;;2.80;;
21833;SDS011;11079;51.092;3.458;2023-12-29T15:04:49;11.10;;;3.00;;
21833;SDS011;11079;51.092;3.458;2023-12-29T15:07:15;12.75;;;3.92;;
21833;SDS011;11079;51.092;3.458;2023-12-29T15:09:42;12.95;;;2.55;;
21833;SDS011;11079;51.092;3.458;2023-12-29T15:12:08;16.95;;;2.97;;
21833;SDS011;11079;51.092;3.458;2023-12-29T15:14:33;7.05;;;2.28;;
21833;SDS011;11079;51.092;3.458;2023-12-29T15:16:59;11.57;;;2.75;;
21833;SDS011;11079;51.092;3.458;2023-12-29T15:19:24;13.70;;;3.33;;
21833;SDS011;11079;51.092;3.458;2023-12-29T15:21:50;9.07;;;2.83;;
21833;SDS011;11079;51.092;3.458;2023-12-29T15:24:18;7.18;;;2.58;;
21833;SDS011;11079;51.092;3.458;2023-12-29T15:26:45;11.10;;;2.47;;